createdAt,value
2023-03-28T03:41:09.653Z,-0.43
2023-03-28T03:44:13.115Z,-0.53
2023-03-28T03:47:17.865Z,-0.47
2023-03-28T03:50:22.380Z,-0.47
2023-03-28T03:53:25.097Z,-0.51
2023-03-28T03:56:28.627Z,-0.47
2023-03-28T03:59:37.079Z,-0.45
2023-03-28T04:02:41.036Z,-0.46
2023-03-28T04:05:44.210Z,-0.35
2023-03-28T04:08:46.893Z,-0.40
2023-03-28T04:11:55.966Z,-0.38
2023-03-28T04:14:58.818Z,-0.32
2023-03-28T04:18:06.887Z,-0.32
2023-03-28T04:21:12.750Z,-0.31
2023-03-28T04:24:16.396Z,-0.19
2023-03-28T04:27:19.337Z,-0.19
2023-03-28T04:30:24.486Z,-0.14
2023-03-28T04:33:30.344Z,-0.07
2023-03-28T04:36:33.560Z,-0.14
2023-03-28T04:39:36.337Z,-0.17
2023-03-28T04:42:39.768Z,-0.17
2023-03-28T04:45:43.624Z,-0.12
2023-03-28T04:48:47.255Z,-0.11
2023-03-28T04:51:51.831Z,-0.07
2023-03-28T04:54:55.078Z,-0.13
2023-03-28T04:57:58.690Z,-0.10
2023-03-28T05:01:05.599Z,0.03
2023-03-28T05:04:08.892Z,0.15
2023-03-28T05:07:11.898Z,0.33
2023-03-28T05:10:15.046Z,0.42
2023-03-28T05:13:18.350Z,0.51
2023-03-28T05:16:21.275Z,0.57
2023-03-28T05:19:25.390Z,0.74
2023-03-28T05:22:29.322Z,0.78
2023-03-28T05:25:34.199Z,0.88
2023-03-28T05:28:36.910Z,1.00
2023-03-28T05:31:49.214Z,1.12
2023-03-28T05:35:01.374Z,1.23
2023-03-28T05:38:05.307Z,1.44
2023-03-28T05:41:10.555Z,1.42
2023-03-28T05:44:13.435Z,1.47
2023-03-28T05:47:19.108Z,1.66
2023-03-28T05:50:23.027Z,1.75
2023-03-28T05:53:29.006Z,1.81
2023-03-28T05:56:35.382Z,1.90
2023-03-28T05:59:40.738Z,1.94
2023-03-28T06:02:43.821Z,1.93
2023-03-28T06:05:47.102Z,2.08
2023-03-28T06:08:51.751Z,2.15
2023-03-28T06:11:55.074Z,2.19
2023-03-28T06:14:57.657Z,2.44
2023-03-28T06:18:00.871Z,2.83
2023-03-28T06:21:05.896Z,2.77
2023-03-28T06:24:10.403Z,2.82
2023-03-28T06:27:13.383Z,2.89
2023-03-28T06:30:18.387Z,2.99
2023-03-28T06:33:21.845Z,3.13
2023-03-28T06:36:24.967Z,3.25
2023-03-28T06:39:28.211Z,3.29
2023-03-28T06:42:31.540Z,3.42
2023-03-28T06:45:34.510Z,3.52
2023-03-28T06:48:38.051Z,3.66
2023-03-28T06:51:41.760Z,3.65
2023-03-28T06:54:46.068Z,3.65
2023-03-28T06:57:50.663Z,3.80
2023-03-28T07:00:55.368Z,3.91
2023-03-28T07:04:02.293Z,4.05
2023-03-28T07:07:06.125Z,4.13
2023-03-28T07:10:09.109Z,4.05
2023-03-28T07:13:12.321Z,4.14
2023-03-28T07:16:17.661Z,4.21
2023-03-28T07:19:21.185Z,4.42
2023-03-28T07:22:24.699Z,4.63
2023-03-28T07:25:29.205Z,4.86
2023-03-28T07:28:32.261Z,4.91
2023-03-28T07:31:35.426Z,5.08
2023-03-28T07:34:38.166Z,5.32
2023-03-28T07:37:43.374Z,5.32
2023-03-28T07:40:48.078Z,5.21
2023-03-28T07:43:51.359Z,5.47
2023-03-28T07:46:57.234Z,5.57
2023-03-28T07:50:00.215Z,5.43
2023-03-28T07:53:03.238Z,5.60
2023-03-28T07:56:12.304Z,5.40
2023-03-28T07:59:17.833Z,5.34
2023-03-28T08:02:20.886Z,5.57
2023-03-28T08:05:24.228Z,5.37
2023-03-28T08:08:27.034Z,5.66
2023-03-28T08:11:32.925Z,5.92
2023-03-28T08:14:35.501Z,6.16
2023-03-28T08:17:38.634Z,5.98
2023-03-28T08:20:43.148Z,5.97
2023-03-28T08:23:46.390Z,6.08
2023-03-28T08:26:49.974Z,6.45
2023-03-28T08:29:52.979Z,6.82
2023-03-28T08:32:55.821Z,6.44
2023-03-28T08:35:58.845Z,6.22
2023-03-28T08:39:04.468Z,5.94
2023-03-28T08:42:33.896Z,6.11
2023-03-28T08:45:46.654Z,6.46
2023-03-28T08:48:53.206Z,7.04
2023-03-28T08:52:01.812Z,7.18
2023-03-28T08:55:46.050Z,7.16
2023-03-28T08:58:55.187Z,7.00
2023-03-28T09:01:58.184Z,7.21
2023-03-28T09:05:17.744Z,7.28
2023-03-28T09:08:40.057Z,7.15
2023-03-28T09:11:58.010Z,7.57
2023-03-28T09:15:36.201Z,8.28
2023-03-28T09:18:56.780Z,8.25
2023-03-28T09:22:16.036Z,7.76
2023-03-28T09:25:35.096Z,7.18
2023-03-28T09:29:10.435Z,7.13
2023-03-28T09:32:46.497Z,7.42
2023-03-28T09:35:50.823Z,7.49
2023-03-28T09:38:58.798Z,7.60
2023-03-28T09:42:27.356Z,8.04
2023-03-28T09:45:35.641Z,8.57
2023-03-28T09:48:55.812Z,7.95
2023-03-28T09:52:00.747Z,7.68
2023-03-28T09:55:05.760Z,7.76
2023-03-28T09:58:14.764Z,7.62
2023-03-28T10:01:29.810Z,7.67
2023-03-28T10:04:38.084Z,7.68
2023-03-28T10:07:44.807Z,7.95
2023-03-28T10:11:15.042Z,8.18
2023-03-28T10:14:34.298Z,8.55
2023-03-28T10:17:38.212Z,9.34
2023-03-28T10:20:41.516Z,9.37
2023-03-28T10:23:52.483Z,10.72
2023-03-28T10:27:31.904Z,10.35
2023-03-28T10:30:36.825Z,10.70
2023-03-28T10:33:44.003Z,10.07
2023-03-28T10:36:48.080Z,10.10
2023-03-28T10:40:00.471Z,10.07
2023-03-28T10:43:14.635Z,10.40
2023-03-28T10:46:23.587Z,10.66
2023-03-28T10:49:31.031Z,10.11
2023-03-28T10:52:53.963Z,9.85
2023-03-28T10:55:59.521Z,9.74
2023-03-28T10:59:06.436Z,9.96
2023-03-28T11:02:39.161Z,9.90
2023-03-28T11:06:08.660Z,10.14
2023-03-28T11:09:30.803Z,10.07
2023-03-28T11:12:55.488Z,10.05
2023-03-28T11:16:47.606Z,10.35
2023-03-28T11:20:17.564Z,9.72
2023-03-28T11:23:38.613Z,9.72
2023-03-28T11:27:12.657Z,9.14
2023-03-28T11:30:26.729Z,9.38
2023-03-28T11:33:53.198Z,9.14
2023-03-28T11:37:07.923Z,9.14
2023-03-28T11:40:25.386Z,9.43
2023-03-28T11:43:39.094Z,9.51
2023-03-28T11:46:44.618Z,9.79
2023-03-28T11:50:01.245Z,9.36
2023-03-28T11:53:33.937Z,9.37
2023-03-28T11:57:00.434Z,9.51
2023-03-28T12:00:22.961Z,9.19
2023-03-28T12:03:46.826Z,9.13
2023-03-28T12:07:03.234Z,9.34
2023-03-28T12:10:39.899Z,9.59
2023-03-28T12:14:01.304Z,9.62
2023-03-28T12:17:25.236Z,9.58
2023-03-28T12:20:56.136Z,9.99
2023-03-28T12:24:41.661Z,10.55
2023-03-28T12:28:02.632Z,11.13
2023-03-28T12:31:14.658Z,11.60
2023-03-28T12:34:22.303Z,11.36
2023-03-28T12:37:36.613Z,11.35
2023-03-28T12:40:57.751Z,10.88
2023-03-28T12:44:12.870Z,11.56
2023-03-28T12:47:21.192Z,11.72
2023-03-28T12:50:32.685Z,12.43
2023-03-28T12:53:43.974Z,13.49
2023-03-28T12:56:47.952Z,14.17
2023-03-28T13:00:03.126Z,14.96
2023-03-28T13:03:33.139Z,15.52
2023-03-28T13:06:42.527Z,15.82
2023-03-28T13:09:59.827Z,12.87
2023-03-28T13:13:28.303Z,11.14
2023-03-28T13:16:57.425Z,9.94
2023-03-28T13:20:15.729Z,9.29
2023-03-28T13:23:28.294Z,8.75
2023-03-28T13:26:54.055Z,8.71
2023-03-28T13:30:28.802Z,8.79
2023-03-28T13:33:38.274Z,9.39
2023-03-28T13:36:51.143Z,10.43
2023-03-28T13:39:59.691Z,12.94
2023-03-28T13:43:02.758Z,16.58
2023-03-28T13:46:05.362Z,19.17
2023-03-28T13:49:11.366Z,20.69
2023-03-28T13:52:21.195Z,21.79
2023-03-28T13:55:26.100Z,21.62
2023-03-28T13:58:29.420Z,22.48
2023-03-28T14:01:44.772Z,21.74
2023-03-28T14:04:56.514Z,20.91
2023-03-28T14:08:20.836Z,21.67
2023-03-28T14:11:31.716Z,23.88
2023-03-28T14:14:39.596Z,27.60
2023-03-28T14:17:42.640Z,27.02
2023-03-28T14:20:46.919Z,30.16
2023-03-28T14:24:00.801Z,29.97
2023-03-28T14:27:14.082Z,28.72
2023-03-28T14:30:19.533Z,28.91
2023-03-28T14:33:24.288Z,30.21
2023-03-28T14:36:37.872Z,29.19
2023-03-28T14:39:40.757Z,27.71
2023-03-28T14:42:43.875Z,25.60
2023-03-28T14:45:52.675Z,26.61
2023-03-28T14:48:59.939Z,26.08
2023-03-28T14:52:03.887Z,24.47
2023-03-28T14:55:21.095Z,23.76
2023-03-28T14:58:24.861Z,23.06
2023-03-28T15:01:30.213Z,22.97
2023-03-28T15:04:39.826Z,24.17
2023-03-28T15:08:03.884Z,25.65
2023-03-28T15:11:35.474Z,26.12
2023-03-28T15:14:58.261Z,27.41
2023-03-28T15:18:28.687Z,26.73
2023-03-28T15:21:34.115Z,26.62
2023-03-28T15:24:38.231Z,25.53
2023-03-28T15:27:46.290Z,23.46
2023-03-28T15:30:50.047Z,23.38
